Latest Weather Observations for Wangaratta

IDV60801

Issued at 2:02 pm EDT Tuesday 9 February 2016 (issued every 30 minutes, with the page automatically refreshed every 10 minutes)

About weather observations | Map of weather stations | Latest weather observations for VIC | Other Formats
Station Details ID: 082138 Name: WANGARATTA AERO Lat: -36.42 Lon: 146.31 Height: 152.6 m
Data from the previous 72 hours. | See also: Recent months at Wangaratta
Date/Time
EDT
Temp
°C
App
Temp
°C
Dew
Point
Rel
Hum
%
Delta-T
°C
Wind Press
QNH
hPa
Press
MSL
hPa
Rain
since 9 am
mm
Dir
 
Spd
km/h
Gust
km/h
Spd
kts
Gust
kts
09/02:00pm 32.1 29.9 10.8 27 12.4 N 13 24 7 13 1016.8 1016.2 0.0
09/01:30pm 31.5 28.0 10.2 27 12.2 N 19 28 10 15 1017.3 1016.7 0.0
09/01:15pm 31.6 28.1 10.9 28 12.0 N 20 33 11 18 1017.4 1016.8 0.0
09/01:00pm 31.0 28.2 11.4 30 11.4 NNE 17 24 9 13 1017.7 1017.1 0.0
09/12:30pm 30.3 27.4 12.2 33 10.7 NNE 19 24 10 13 1018.1 1017.5 0.0
09/12:00pm 29.8 27.0 13.1 36 10.0 NNE 20 30 11 16 1018.6 1017.9 0.0
09/11:30am 28.5 26.1 12.8 38 9.3 NNE 17 33 9 18 1018.9 1018.2 0.0
09/11:00am 27.6 25.8 13.2 41 8.5 NNE 15 28 8 15 1019.1 1018.5 0.0
09/10:30am 26.9 25.3 11.4 38 8.9 NNE 11 22 6 12 1019.1 1018.5 0.0
09/10:00am 25.7 24.6 11.8 42 8.0 ESE 9 15 5 8 1019.2 1018.6 0.0
09/09:30am 24.3 23.1 11.6 45 7.2 SE 9 13 5 7 1019.4 1018.8 0.0
09/09:00am 22.4 21.6 11.8 51 6.0 SE 7 11 4 6 1019.5 1018.9 0.0
09/08:30am 20.8 20.2 11.7 56 5.1 SSE 6 9 3 5 1019.4 1018.8 0.0
09/08:00am 18.4 17.8 12.4 68 3.4 SSW 7 11 4 6 1019.1 1018.5 0.0
09/07:30am 15.5 15.2 12.6 83 1.6 SSW 6 9 3 5 1018.9 1018.2 0.0
09/07:00am 13.2 12.1 10.6 84 1.4 SSW 7 9 4 5 1018.7 1018.0 0.0
09/06:30am 14.7 13.5 11.7 82 1.6 SSW 9 11 5 6 1018.2 1017.6 0.0
09/06:00am 14.3 13.4 11.5 83 1.5 SSW 7 9 4 5 1017.8 1017.2 0.0
09/05:30am 14.7 13.9 11.7 82 1.6 SSW 7 9 4 5 1017.5 1016.9 0.0
09/05:00am 15.2 14.5 11.4 78 2.0 SSW 6 7 3 4 1017.2 1016.6 0.0
09/04:30am 16.0 15.3 12.0 77 2.2 S 7 9 4 5 1016.9 1016.3 0.0
09/04:00am 16.5 16.9 11.4 72 2.8 CALM 0 0 0 0 1016.9 1016.3 0.0
09/03:30am 16.4 16.8 11.3 72 2.8 CALM 0 4 0 2 1016.9 1016.3 0.0
09/03:00am 18.3 17.2 12.1 67 3.4 S 9 11 5 6 1016.7 1016.1 0.0
09/02:30am 17.2 15.3 11.7 70 3.0 SSW 13 13 7 7 1016.7 1016.1 0.0
09/02:00am 17.8 16.5 11.1 65 3.6 SSW 9 11 5 6 1016.8 1016.2 0.0
09/01:30am 20.8 18.8 11.4 55 5.2 S 13 15 7 8 1016.8 1016.2 0.0
09/01:00am 19.9 18.3 11.4 58 4.7 S 11 13 6 7 1017.0 1016.4 0.0
09/12:30am 20.8 19.0 10.9 53 5.5 S 11 13 6 7 1017.1 1016.5 0.0
09/12:00am 20.7 19.0 11.1 54 5.3 S 11 13 6 7 1017.2 1016.6 0.0
 
Date/Time
EDT
Temp
°C
App
Temp
°C
Dew
Point
Rel
Hum
%
Delta-T
°C
Wind Press
QNH
hPa
Press
MSL
hPa
Rain
since 9 am
mm
Dir
 
Spd
km/h
Gust
km/h
Spd
kts
Gust
kts
08/11:30pm 21.1 19.5 10.3 50 5.9 S 9 11 5 6 1017.3 1016.7 0.0
08/11:00pm 21.5 19.7 9.4 46 6.5 SSW 9 11 5 6 1017.4 1016.8 0.0
08/10:30pm 22.1 19.3 8.6 42 7.2 SSW 13 15 7 8 1017.3 1016.7 0.0
08/10:00pm 22.8 19.0 7.4 37 8.1 SW 17 19 9 10 1017.1 1016.5 0.0
08/09:30pm 24.5 20.8 6.3 31 9.4 SW 15 19 8 10 1016.8 1016.2 0.0
08/09:00pm 26.5 21.7 4.9 25 11.0 SW 19 24 10 13 1016.5 1015.9 0.0
08/08:30pm 27.2 23.4 7.6 29 10.6 SW 17 24 9 13 1016.4 1015.8 0.0
08/08:00pm 29.3 24.7 6.7 24 12.1 SW 20 28 11 15 1016.2 1015.6 0.0
08/07:30pm 30.7 25.6 7.8 24 12.6 SW 24 32 13 17 1015.9 1015.3 0.0
08/07:00pm 31.9 26.2 8.2 23 13.2 SSW 28 35 15 19 1015.6 1015.0 0.0
08/06:30pm 33.2 28.0 7.2 20 14.4 SSW 24 32 13 17 1015.5 1014.9 0.0
08/06:00pm 33.7 27.7 6.9 19 14.8 SSW 28 35 15 19 1015.4 1014.8 0.0
08/05:30pm 34.4 30.7 9.6 22 14.3 S 19 28 10 15 1015.4 1014.8 0.0
08/05:00pm 33.2 30.6 9.3 23 13.6 SSW 13 22 7 12 1015.6 1015.0 0.0
08/04:30pm 34.5 30.7 7.5 19 15.1 SW 17 30 9 16 1015.8 1015.2 0.0
08/04:00pm 34.6 32.3 10.4 23 14.1 SW 13 22 7 12 1016.0 1015.4 0.0
08/03:30pm 33.8 30.6 8.4 21 14.3 WNW 15 28 8 15 1016.3 1015.7 0.0
08/03:00pm 33.7 30.8 9.7 23 13.8 SE 15 24 8 13 1016.6 1016.0 0.0
08/02:30pm 34.1 32.3 9.4 22 14.2 ENE 9 19 5 10 1017.0 1016.4 0.0
08/02:00pm 33.1 31.6 9.2 23 13.6 NNE 7 15 4 8 1017.5 1016.9 0.0
08/01:30pm 32.3 31.2 12.0 29 12.0 N 9 15 5 8 1017.8 1017.2 0.0
08/01:00pm 31.6 30.5 11.9 30 11.6 ENE 9 17 5 9 1018.2 1017.6 0.0
08/12:30pm 31.0 29.9 11.9 31 11.2 NNE 9 15 5 8 1018.7 1018.0 0.0
08/12:00pm 30.1 29.4 12.1 33 10.6 NNW 7 19 4 10 1019.0 1018.3 0.0
08/11:30am 29.1 27.7 12.1 35 10.0 N 11 17 6 9 1019.3 1018.7 0.0
08/11:00am 28.7 27.9 11.7 35 9.9 NW 7 13 4 7 1019.5 1018.9 0.0
08/10:30am 27.7 26.6 12.1 38 9.1 NE 9 13 5 7 1019.6 1019.0 0.0
08/10:00am 26.9 26.8 13.3 43 8.0 ESE 6 9 3 5 1019.7 1019.1 0.0
08/09:30am 24.9 24.5 14.1 51 6.4 SSE 9 13 5 7 1019.7 1019.1 0.0
08/09:00am 23.3 23.0 14.3 57 5.3 S 9 13 5 7 1019.6 1019.0 0.0
08/08:30am 22.6 22.5 13.9 58 5.1 E 7 9 4 5 1019.4 1018.8 0.0
08/08:00am 21.5 22.9 14.4 64 4.2 CALM 0 0 0 0 1019.2 1018.6 0.0
08/07:30am 17.5 19.1 15.0 85 1.5 CALM 0 0 0 0 1019.0 1018.3 0.0
08/07:00am 15.6 16.0 13.6 88 1.1 W 4 6 2 3 1018.8 1018.1 0.0
08/06:30am 16.9 18.4 14.7 87 1.3 CALM 0 0 0 0 1018.3 1017.7 0.0
08/06:00am 15.5 16.4 13.0 85 1.4 CALM 0 0 0 0 1017.9 1017.3 0.0
08/05:30am 17.0 18.4 14.5 85 1.4 CALM 0 0 0 0 1017.6 1017.0 0.0
08/05:00am 17.5 18.9 14.4 82 1.8 CALM 0 0 0 0 1017.4 1016.8 0.0
08/04:30am 18.3 19.8 14.6 79 2.2 CALM 0 0 0 0 1017.2 1016.6 0.0
08/04:00am 17.8 18.6 14.9 83 1.7 S 4 7 2 4 1017.1 1016.5 0.0
08/03:30am 18.9 20.5 14.8 77 2.4 CALM 0 0 0 0 1016.9 1016.3 0.0
08/03:00am 18.8 20.2 14.3 75 2.6 CALM 0 0 0 0 1016.9 1016.3 0.0
08/02:30am 19.3 19.1 14.6 74 2.8 SW 9 11 5 6 1017.0 1016.4 0.0
08/02:00am 20.1 20.7 14.2 69 3.4 SSW 4 7 2 4 1017.0 1016.4 0.0
08/01:30am 20.8 21.3 14.9 69 3.5 SW 6 7 3 4 1017.1 1016.5 0.0
08/01:00am 22.2 23.4 13.8 59 4.9 CALM 0 2 0 1 1016.9 1016.3 0.0
08/12:30am 21.1 20.8 14.3 65 4.0 SSW 9 11 5 6 1016.8 1016.2 0.0
08/12:00am 23.1 23.1 15.2 61 4.7 S 9 9 5 5 1016.6 1016.0 0.0
 
Date/Time
EDT
Temp
°C
App
Temp
°C
Dew
Point
Rel
Hum
%
Delta-T
°C
Wind Press
QNH
hPa
Press
MSL
hPa
Rain
since 9 am
mm
Dir
 
Spd
km/h
Gust
km/h
Spd
kts
Gust
kts
07/11:30pm 24.3 24.0 14.4 54 5.9 S 9 13 5 7 1016.2 1015.6 0.0
07/11:00pm 23.9 23.6 14.3 55 5.7 S 9 13 5 7 1016.1 1015.5 0.0
07/10:30pm 25.1 26.0 13.0 47 7.1 CALM 0 0 0 0 1015.8 1015.2 0.0
07/10:00pm 26.5 26.6 11.4 39 8.6 WNW 2 6 1 3 1015.7 1015.1 0.0
07/09:30pm 27.3 26.6 11.3 37 9.2 WNW 6 6 3 3 1015.5 1014.9 0.0
07/09:00pm 27.7 26.3 10.9 35 9.6 W 9 9 5 5 1015.1 1014.5 0.0
07/08:30pm 28.7 27.4 9.9 31 10.6 W 7 9 4 5 1014.9 1014.3 0.0
07/08:00pm 30.8 28.7 9.6 27 12.0 W 11 13 6 7 1014.6 1014.0 0.0
07/07:30pm 32.7 30.9 9.5 24 13.3 WSW 9 13 5 7 1014.3 1013.7 0.0
07/07:00pm 33.4 31.6 9.4 23 13.7 SW 9 17 5 9 1013.9 1013.3 0.0
07/06:30pm 32.9 30.8 9.7 24 13.3 S 11 19 6 10 1013.8 1013.2 0.0
07/06:00pm 33.3 31.1 9.4 23 13.7 SW 11 19 6 10 1013.8 1013.2 0.0
07/05:30pm 33.0 31.6 10.9 26 12.9 SSE 9 15 5 8 1013.9 1013.3 0.0
07/05:00pm 32.8 30.6 10.8 26 12.8 S 13 20 7 11 1014.0 1013.4 0.0
07/04:30pm 32.9 30.5 11.4 27 12.7 SW 15 24 8 13 1014.2 1013.6 0.0
07/04:00pm 32.3 29.7 12.0 29 12.0 SSW 17 26 9 14 1014.5 1013.9 0.0
07/03:30pm 31.8 30.6 11.6 29 11.9 WSW 9 15 5 8 1015.0 1014.4 0.0
07/03:00pm 31.1 29.3 12.0 31 11.3 WSW 13 28 7 15 1015.5 1014.9 0.0
07/02:30pm 31.1 29.4 12.5 32 11.1 WSW 13 22 7 12 1015.9 1015.3 0.0
07/02:00pm 30.2 28.0 12.1 32 10.6 SW 15 20 8 11 1016.5 1015.9 0.0
07/01:30pm 29.3 27.6 12.3 35 10.0 SSW 13 20 7 11 1016.8 1016.2 0.0
07/01:00pm 28.6 27.9 13.3 39 9.1 N 9 19 5 10 1017.1 1016.5 0.0
07/12:30pm 27.6 26.5 13.2 41 8.5 NW 11 17 6 9 1017.4 1016.8 0.0
07/12:00pm 26.8 26.6 13.5 44 7.9 NNW 7 13 4 7 1017.8 1017.2 0.0
07/11:30am 27.0 27.0 14.1 45 7.7 WNW 7 17 4 9 1018.0 1017.4 0.0
07/11:00am 25.8 25.9 14.0 48 7.0 NNW 6 11 3 6 1018.2 1017.6 0.0
07/10:30am 24.4 24.1 13.3 50 6.5 N 7 13 4 7 1018.5 1017.8 0.0
07/10:00am 23.8 23.0 12.8 50 6.4 NE 9 15 5 8 1018.6 1017.9 0.0
07/09:30am 23.3 23.0 12.6 51 6.2 NE 6 13 3 7 1018.5 1017.8 0.0
07/09:00am 22.0 22.4 13.6 59 4.9 SE 4 7 2 4 1018.5 1017.8 0.0
07/08:30am 20.6 21.0 15.2 71 3.2 ESE 7 9 4 5 1018.2 1017.6 0.0
07/08:00am 18.9 19.0 14.4 75 2.6 SE 7 11 4 6 1018.1 1017.5 0.0
07/07:30am 17.0 18.4 14.3 84 1.6 CALM 0 0 0 0 1017.6 1017.0 0.0
07/07:00am 14.7 14.9 13.1 90 0.9 W 4 6 2 3 1017.4 1016.8 0.0
07/06:30am 14.6 14.2 13.0 90 0.9 SSW 7 9 4 5 1017.2 1016.6 0.0
07/06:00am 15.5 14.6 13.7 89 1.0 SSE 11 13 6 7 1016.8 1016.2 0.0
07/05:30am 15.0 14.2 12.9 87 1.2 ESE 9 9 5 5 1016.3 1015.7 0.0
07/05:00am 16.2 16.5 13.3 83 1.6 N 4 6 2 3 1015.9 1015.3 0.0
07/04:30am 16.4 17.5 13.5 83 1.6 CALM 0 0 0 0 1015.8 1015.2 0.0
07/04:00am 16.7 17.9 13.8 83 1.7 CALM 0 0 0 0 1015.9 1015.3 0.0
07/03:30am 18.1 18.0 13.8 76 2.5 N 7 9 4 5 1015.9 1015.3 0.0
07/03:00am 18.5 18.6 14.4 77 2.4 N 7 9 4 5 1015.8 1015.2 0.0
07/02:30am 17.6 19.0 14.5 82 1.8 CALM 0 0 0 0 1015.7 1015.1 0.0
07/02:00am 18.1 19.5 14.4 79 2.1 CALM 0 0 0 0 1015.8 1015.2 0.0
07/01:30am 18.4 19.7 15.1 81 1.9 SSW 2 6 1 3 1015.8 1015.2 0.0
07/01:00am 17.7 17.8 14.4 81 1.9 SSW 7 7 4 4 1015.9 1015.3 0.0
07/12:30am 18.0 18.3 13.5 75 2.6 SSW 4 7 2 4 1015.8 1015.2 0.0
07/12:00am 17.3 17.4 12.8 75 2.5 SSE 4 7 2 4 1015.7 1015.1 0.0
 
Date/Time
EDT
Temp
°C
App
Temp
°C
Dew
Point
Rel
Hum
%
Delta-T
°C
Wind Press
QNH
hPa
Press
MSL
hPa
Rain
since 9 am
mm
Dir
 
Spd
km/h
Gust
km/h
Spd
kts
Gust
kts
06/11:30pm 19.5 20.8 14.1 71 3.1 CALM 0 0 0 0 1015.5 1014.9 0.0
06/11:00pm 19.7 20.6 12.9 65 3.9 CALM 0 0 0 0 1015.4 1014.8 0.0
06/10:30pm 19.8 20.7 12.8 64 4.0 CALM 0 2 0 1 1015.3 1014.7 0.0
06/10:00pm 22.9 22.8 13.4 55 5.5 N 6 7 3 4 1015.1 1014.5 0.0
06/09:30pm 22.1 22.4 12.1 53 5.7 W 2 7 1 4 1014.9 1014.3 0.0
06/09:00pm 22.2 21.6 12.2 53 5.7 NW 7 9 4 5 1014.4 1013.8 0.0
06/08:30pm 26.3 25.5 10.9 38 8.7 NNE 6 7 3 4 1014.0 1013.4 0.0
06/08:00pm 27.4 26.3 10.6 35 9.5 N 7 9 4 5 1013.8 1013.2 0.0
06/07:30pm 28.7 27.4 9.9 31 10.6 NNE 7 9 4 5 1013.6 1013.0 0.0
06/07:00pm 28.9 27.1 9.6 30 10.9 NE 9 15 5 8 1013.4 1012.8 0.0
06/06:30pm 29.2 27.4 9.3 29 11.1 NNE 9 15 5 8 1013.4 1012.8 0.0
06/06:00pm 29.4 27.9 10.5 31 10.8 N 9 15 5 8 1013.4 1012.8 0.0
06/05:30pm 29.5 28.4 10.6 31 10.8 N 7 17 4 9 1013.5 1012.9 0.0
06/05:00pm 29.4 28.3 10.5 31 10.8 ENE 7 11 4 6 1013.8 1013.2 0.0
06/04:30pm 29.0 27.3 11.1 33 10.3 NE 11 19 6 10 1014.1 1013.5 0.0
06/04:00pm 28.9 27.4 10.6 32 10.5 NW 9 15 5 8 1014.5 1013.9 0.0
06/03:30pm 28.4 27.4 11.0 34 10.0 N 7 15 4 8 1015.0 1014.4 0.0
06/03:00pm 28.4 26.8 11.5 35 9.8 N 11 20 6 11 1015.4 1014.8 0.0
06/02:30pm 27.3 25.8 10.5 35 9.5 NNE 9 17 5 9 1015.7 1015.1 0.0

Other Formats:

Comma delimited format used in spreadsheet applications
http://www.bom.gov.au/fwo/IDV60801/IDV60801.94889.axf

JavaScript Object Notation format (JSON) in row-major order
http://www.bom.gov.au/fwo/IDV60801/IDV60801.94889.json